This is the latest recevied weather packets stored in our database for station/object SP6FIG-13. If no packets are shown the sender has not sent any weather packets the latest 1 day(s).
| Time | Temp. | Humidity | Pressure | Rain* | Wind** | Luminosity | Snow |
|---|---|---|---|---|---|---|---|
| 1778081669 | 23.33° C | 34% | 1006.3 hPa | - | - | - | - |
| 1778081369 | 23.33° C | 34% | 1006.2 hPa | - | - | - | - |
| 1778081069 | 23.33° C | 35% | 1005.5 hPa | - | - | - | - |
| 1778080769 | 23.33° C | 34% | 1005.8 hPa | - | - | - | - |
| 1778080469 | 23.33° C | 34% | 1006.4 hPa | - | - | - | - |
| 1778080169 | 23.33° C | 35% | 1005.7 hPa | - | - | - | - |
| 1778079869 | 23.33° C | 34% | 1006.4 hPa | - | - | - | - |
| 1778079569 | 23.89° C | 34% | 1005.8 hPa | - | - | - | - |
| 1778079269 | 23.89° C | 36% | 1006.2 hPa | - | - | - | - |
| 1778078969 | 23.89° C | 35% | 1006.2 hPa | - | - | - | - |
| 1778078669 | 23.89° C | 34% | 1006.1 hPa | - | - | - | - |
| 1778078369 | 23.89° C | 34% | 1006.5 hPa | - | - | - | - |
| 1778077769 | 23.33° C | 36% | 1006.2 hPa | - | - | - | - |
| 1778077469 | 23.33° C | 36% | 1006.3 hPa | - | - | - | - |
| 1778077199 | 23.89° C | 36% | 1006.3 hPa | - | - | - | - |
| 1778076869 | 23.89° C | 37% | 1006.3 hPa | - | - | - | - |
| 1778076569 | 23.89° C | 37% | 1006.1 hPa | - | - | - | - |
| 1778075969 | 23.89° C | 37% | 1006.2 hPa | - | - | - | - |
| 1778075669 | 23.33° C | 35% | 1006.6 hPa | - | - | - | - |
| 1778075369 | 23.33° C | 34% | 1007.1 hPa | - | - | - | - |
| 1778074769 | 23.33° C | 37% | 1006.4 hPa | - | - | - | - |
| 1778073869 | 22.78° C | 36% | 1007.1 hPa | - | - | - | - |
| 1778072969 | 23.33° C | 35% | 1007 hPa | - | - | - | - |
| 1778072669 | 23.33° C | 35% | 1007 hPa | - | - | - | - |
| 1778072369 | 23.33° C | 36% | 1007.3 hPa | - | - | - | - |
* Rain since midnight (hover to see other rain measurements)
** Current wind speed in m/s (hover to see current wind gust speed)